sensor_id;sensor_type;location;lat;lon;timestamp;temperature;humidity
19829;DHT22;10075;50.924;4.396;2022-12-18T00:02:09;-2.90;99.90
19829;DHT22;10075;50.924;4.396;2022-12-18T00:04:37;-2.90;99.90
19829;DHT22;10075;50.924;4.396;2022-12-18T00:07:04;-2.90;99.90
19829;DHT22;10075;50.924;4.396;2022-12-18T00:09:31;-3.00;99.90
19829;DHT22;10075;50.924;4.396;2022-12-18T00:11:58;-3.10;99.90
19829;DHT22;10075;50.924;4.396;2022-12-18T00:14:25;-3.00;99.90
19829;DHT22;10075;50.924;4.396;2022-12-18T00:16:53;-3.20;99.90
19829;DHT22;10075;50.924;4.396;2022-12-18T00:19:20;-3.20;99.90
19829;DHT22;10075;50.924;4.396;2022-12-18T00:21:48;-3.30;99.90
19829;DHT22;10075;50.924;4.396;2022-12-18T00:24:15;-3.30;99.90
19829;DHT22;10075;50.924;4.396;2022-12-18T00:26:42;-3.30;99.90
19829;DHT22;10075;50.924;4.396;2022-12-18T00:29:11;-3.40;99.90
19829;DHT22;10075;50.924;4.396;2022-12-18T00:31:40;-3.30;99.90
19829;DHT22;10075;50.924;4.396;2022-12-18T00:34:10;-3.20;99.90
19829;DHT22;10075;50.924;4.396;2022-12-18T00:36:38;-3.20;99.90
19829;DHT22;10075;50.924;4.396;2022-12-18T00:39:07;-3.30;99.90
19829;DHT22;10075;50.924;4.396;2022-12-18T00:41:34;-3.40;99.90
19829;DHT22;10075;50.924;4.396;2022-12-18T00:44:18;-3.50;99.90
19829;DHT22;10075;50.924;4.396;2022-12-18T00:46:46;-3.50;99.90
19829;DHT22;10075;50.924;4.396;2022-12-18T00:49:14;-3.60;99.90
19829;DHT22;10075;50.924;4.396;2022-12-18T00:51:42;-3.60;99.90
19829;DHT22;10075;50.924;4.396;2022-12-18T00:54:10;-3.60;99.90
19829;DHT22;10075;50.924;4.396;2022-12-18T00:56:38;-3.60;99.90
19829;DHT22;10075;50.924;4.396;2022-12-18T00:59:06;-3.60;99.90
19829;DHT22;10075;50.924;4.396;2022-12-18T01:01:33;-3.50;99.90
19829;DHT22;10075;50.924;4.396;2022-12-18T01:04:01;-3.40;99.90
19829;DHT22;10075;50.924;4.396;2022-12-18T01:06:29;-3.40;99.90
19829;DHT22;10075;50.924;4.396;2022-12-18T01:08:56;-3.30;99.90
19829;DHT22;10075;50.924;4.396;2022-12-18T01:11:25;-3.40;99.90
19829;DHT22;10075;50.924;4.396;2022-12-18T01:13:53;-3.30;99.90
19829;DHT22;10075;50.924;4.396;2022-12-18T01:16:21;-3.40;99.90
19829;DHT22;10075;50.924;4.396;2022-12-18T01:18:51;-3.50;99.90
19829;DHT22;10075;50.924;4.396;2022-12-18T01:21:19;-3.60;99.90
19829;DHT22;10075;50.924;4.396;2022-12-18T01:23:50;-3.60;99.90
19829;DHT22;10075;50.924;4.396;2022-12-18T01:26:17;-3.50;99.90
19829;DHT22;10075;50.924;4.396;2022-12-18T01:28:46;-3.60;99.90
19829;DHT22;10075;50.924;4.396;2022-12-18T01:31:16;-3.60;99.90
19829;DHT22;10075;50.924;4.396;2022-12-18T01:33:44;-3.50;99.90
19829;DHT22;10075;50.924;4.396;2022-12-18T01:36:19;-3.40;99.90
19829;DHT22;10075;50.924;4.396;2022-12-18T01:38:46;-3.40;99.90
19829;DHT22;10075;50.924;4.396;2022-12-18T01:41:14;-3.40;99.90
19829;DHT22;10075;50.924;4.396;2022-12-18T01:43:44;-3.50;99.90
19829;DHT22;10075;50.924;4.396;2022-12-18T01:46:13;-3.60;99.90
19829;DHT22;10075;50.924;4.396;2022-12-18T01:48:41;-3.70;99.90
19829;DHT22;10075;50.924;4.396;2022-12-18T01:51:09;-3.70;99.90
19829;DHT22;10075;50.924;4.396;2022-12-18T01:53:39;-3.70;99.90
19829;DHT22;10075;50.924;4.396;2022-12-18T01:56:07;-3.70;99.90
19829;DHT22;10075;50.924;4.396;2022-12-18T01:58:40;-3.70;99.90
19829;DHT22;10075;50.924;4.396;2022-12-18T02:01:09;-3.90;99.90
19829;DHT22;10075;50.924;4.396;2022-12-18T02:03:41;-3.90;99.90
19829;DHT22;10075;50.924;4.396;2022-12-18T02:06:15;-3.80;99.90
19829;DHT22;10075;50.924;4.396;2022-12-18T02:08:52;-3.70;99.90
19829;DHT22;10075;50.924;4.396;2022-12-18T02:11:27;-3.60;99.90
19829;DHT22;10075;50.924;4.396;2022-12-18T02:14:01;-3.60;99.90
19829;DHT22;10075;50.924;4.396;2022-12-18T02:16:39;-3.60;99.90
19829;DHT22;10075;50.924;4.396;2022-12-18T02:19:20;-3.60;99.90
19829;DHT22;10075;50.924;4.396;2022-12-18T02:21:56;-3.70;99.90
19829;DHT22;10075;50.924;4.396;2022-12-18T02:24:31;-3.80;99.90
19829;DHT22;10075;50.924;4.396;2022-12-18T02:27:04;-3.80;99.90
19829;DHT22;10075;50.924;4.396;2022-12-18T02:29:35;-3.80;99.90
19829;DHT22;10075;50.924;4.396;2022-12-18T02:32:08;-3.90;99.90
19829;DHT22;10075;50.924;4.396;2022-12-18T02:34:39;-3.90;99.90
19829;DHT22;10075;50.924;4.396;2022-12-18T02:37:11;-4.00;99.90
19829;DHT22;10075;50.924;4.396;2022-12-18T02:39:41;-4.00;99.90
19829;DHT22;10075;50.924;4.396;2022-12-18T02:42:11;-4.10;99.90
19829;DHT22;10075;50.924;4.396;2022-12-18T02:44:42;-4.10;99.90
19829;DHT22;10075;50.924;4.396;2022-12-18T02:47:10;-4.20;99.90
19829;DHT22;10075;50.924;4.396;2022-12-18T02:49:47;-4.20;99.90
19829;DHT22;10075;50.924;4.396;2022-12-18T02:52:24;-4.20;99.90
19829;DHT22;10075;50.924;4.396;2022-12-18T02:55:00;-4.30;99.90
19829;DHT22;10075;50.924;4.396;2022-12-18T02:57:39;-4.30;99.90
19829;DHT22;10075;50.924;4.396;2022-12-18T03:00:11;-4.40;99.90
19829;DHT22;10075;50.924;4.396;2022-12-18T03:02:44;-4.40;99.90
19829;DHT22;10075;50.924;4.396;2022-12-18T03:05:15;-4.40;99.90
19829;DHT22;10075;50.924;4.396;2022-12-18T03:07:48;-4.40;99.90
19829;DHT22;10075;50.924;4.396;2022-12-18T03:10:21;-4.30;99.90
19829;DHT22;10075;50.924;4.396;2022-12-18T03:12:54;-4.10;99.90
19829;DHT22;10075;50.924;4.396;2022-12-18T03:15:26;-4.10;99.90
19829;DHT22;10075;50.924;4.396;2022-12-18T03:17:57;-4.10;99.90
19829;DHT22;10075;50.924;4.396;2022-12-18T03:20:29;-4.10;99.90
19829;DHT22;10075;50.924;4.396;2022-12-18T03:23:01;-4.10;99.90
19829;DHT22;10075;50.924;4.396;2022-12-18T03:25:30;-4.00;99.90
19829;DHT22;10075;50.924;4.396;2022-12-18T03:28:02;-4.10;99.90
19829;DHT22;10075;50.924;4.396;2022-12-18T03:30:30;-4.10;99.90
19829;DHT22;10075;50.924;4.396;2022-12-18T03:33:04;-4.20;99.90
19829;DHT22;10075;50.924;4.396;2022-12-18T03:35:34;-4.20;99.90
19829;DHT22;10075;50.924;4.396;2022-12-18T03:38:02;-4.10;99.90
19829;DHT22;10075;50.924;4.396;2022-12-18T03:40:33;-4.30;99.90
19829;DHT22;10075;50.924;4.396;2022-12-18T03:43:07;-4.20;99.90
19829;DHT22;10075;50.924;4.396;2022-12-18T03:45:41;-4.30;99.90
19829;DHT22;10075;50.924;4.396;2022-12-18T03:48:16;-4.30;99.90
19829;DHT22;10075;50.924;4.396;2022-12-18T03:50:47;-4.30;99.90
19829;DHT22;10075;50.924;4.396;2022-12-18T03:53:25;-4.10;99.90
19829;DHT22;10075;50.924;4.396;2022-12-18T03:55:54;-4.00;99.90
19829;DHT22;10075;50.924;4.396;2022-12-18T03:58:25;-4.10;99.90
19829;DHT22;10075;50.924;4.396;2022-12-18T04:00:56;-4.10;99.90
19829;DHT22;10075;50.924;4.396;2022-12-18T04:03:24;-4.20;99.90
19829;DHT22;10075;50.924;4.396;2022-12-18T04:05:55;-4.10;99.90
19829;DHT22;10075;50.924;4.396;2022-12-18T04:08:24;-4.20;99.90
19829;DHT22;10075;50.924;4.396;2022-12-18T04:10:51;-4.20;99.90
19829;DHT22;10075;50.924;4.396;2022-12-18T04:13:24;-4.30;99.90
19829;DHT22;10075;50.924;4.396;2022-12-18T04:15:51;-4.30;99.90
19829;DHT22;10075;50.924;4.396;2022-12-18T04:18:18;-4.20;99.90
19829;DHT22;10075;50.924;4.396;2022-12-18T04:20:45;-4.10;99.90
19829;DHT22;10075;50.924;4.396;2022-12-18T04:23:12;-4.20;99.90
19829;DHT22;10075;50.924;4.396;2022-12-18T04:25:40;-4.30;99.90
19829;DHT22;10075;50.924;4.396;2022-12-18T04:28:07;-4.30;99.90
19829;DHT22;10075;50.924;4.396;2022-12-18T04:30:35;-4.40;99.90
19829;DHT22;10075;50.924;4.396;2022-12-18T04:33:02;-4.40;99.90
19829;DHT22;10075;50.924;4.396;2022-12-18T04:35:29;-4.40;99.90
19829;DHT22;10075;50.924;4.396;2022-12-18T04:37:56;-4.40;99.90
19829;DHT22;10075;50.924;4.396;2022-12-18T04:40:23;-4.50;99.90
19829;DHT22;10075;50.924;4.396;2022-12-18T04:42:50;-4.40;99.90
19829;DHT22;10075;50.924;4.396;2022-12-18T04:45:18;-4.50;99.90
19829;DHT22;10075;50.924;4.396;2022-12-18T04:47:46;-4.50;99.90
19829;DHT22;10075;50.924;4.396;2022-12-18T04:50:13;-4.50;99.90
19829;DHT22;10075;50.924;4.396;2022-12-18T04:52:40;-4.50;99.90
19829;DHT22;10075;50.924;4.396;2022-12-18T04:55:07;-4.40;99.90
19829;DHT22;10075;50.924;4.396;2022-12-18T04:57:35;-4.60;99.90
19829;DHT22;10075;50.924;4.396;2022-12-18T05:00:03;-4.60;99.90
19829;DHT22;10075;50.924;4.396;2022-12-18T05:02:31;-4.70;99.90
19829;DHT22;10075;50.924;4.396;2022-12-18T05:05:00;-4.70;99.90
19829;DHT22;10075;50.924;4.396;2022-12-18T05:07:27;-4.70;99.90
19829;DHT22;10075;50.924;4.396;2022-12-18T05:09:54;-4.60;99.90
19829;DHT22;10075;50.924;4.396;2022-12-18T05:12:21;-4.70;99.90
19829;DHT22;10075;50.924;4.396;2022-12-18T05:14:48;-4.70;99.90
19829;DHT22;10075;50.924;4.396;2022-12-18T05:17:15;-4.70;99.90
19829;DHT22;10075;50.924;4.396;2022-12-18T05:19:42;-4.70;99.90
19829;DHT22;10075;50.924;4.396;2022-12-18T05:22:10;-4.80;99.90
19829;DHT22;10075;50.924;4.396;2022-12-18T05:24:38;-4.70;99.90
19829;DHT22;10075;50.924;4.396;2022-12-18T05:27:05;-4.60;99.90
19829;DHT22;10075;50.924;4.396;2022-12-18T05:29:32;-4.60;99.90
19829;DHT22;10075;50.924;4.396;2022-12-18T05:31:59;-4.60;99.90
19829;DHT22;10075;50.924;4.396;2022-12-18T05:34:26;-4.60;99.90
19829;DHT22;10075;50.924;4.396;2022-12-18T05:36:53;-4.70;99.90
19829;DHT22;10075;50.924;4.396;2022-12-18T05:39:21;-4.70;99.90
19829;DHT22;10075;50.924;4.396;2022-12-18T05:41:49;-4.70;99.90
19829;DHT22;10075;50.924;4.396;2022-12-18T05:44:16;-4.70;99.90
19829;DHT22;10075;50.924;4.396;2022-12-18T05:46:43;-4.60;99.90
19829;DHT22;10075;50.924;4.396;2022-12-18T05:49:10;-4.60;99.90
19829;DHT22;10075;50.924;4.396;2022-12-18T05:51:37;-4.60;99.90
19829;DHT22;10075;50.924;4.396;2022-12-18T05:54:04;-4.60;99.90
19829;DHT22;10075;50.924;4.396;2022-12-18T05:56:33;-4.70;99.90
19829;DHT22;10075;50.924;4.396;2022-12-18T05:59:00;-4.70;99.90
19829;DHT22;10075;50.924;4.396;2022-12-18T06:01:27;-4.80;99.90
19829;DHT22;10075;50.924;4.396;2022-12-18T06:03:55;-4.80;99.90
19829;DHT22;10075;50.924;4.396;2022-12-18T06:06:23;-4.80;99.90
19829;DHT22;10075;50.924;4.396;2022-12-18T06:08:51;-4.80;99.90
19829;DHT22;10075;50.924;4.396;2022-12-18T06:11:19;-4.80;99.90
19829;DHT22;10075;50.924;4.396;2022-12-18T06:13:49;-4.80;99.90
19829;DHT22;10075;50.924;4.396;2022-12-18T06:16:17;-4.90;99.90
19829;DHT22;10075;50.924;4.396;2022-12-18T06:18:44;-4.90;99.90
19829;DHT22;10075;50.924;4.396;2022-12-18T06:21:11;-4.90;99.90
19829;DHT22;10075;50.924;4.396;2022-12-18T06:23:38;-4.90;99.90
19829;DHT22;10075;50.924;4.396;2022-12-18T06:26:06;-4.90;99.90
19829;DHT22;10075;50.924;4.396;2022-12-18T06:28:33;-4.90;99.90
19829;DHT22;10075;50.924;4.396;2022-12-18T06:31:02;-5.00;99.90
19829;DHT22;10075;50.924;4.396;2022-12-18T06:33:30;-4.90;99.90
19829;DHT22;10075;50.924;4.396;2022-12-18T06:36:00;-4.80;99.90
19829;DHT22;10075;50.924;4.396;2022-12-18T06:38:27;-4.70;99.90
19829;DHT22;10075;50.924;4.396;2022-12-18T06:40:55;-4.70;99.90
19829;DHT22;10075;50.924;4.396;2022-12-18T06:43:22;-4.70;99.90
19829;DHT22;10075;50.924;4.396;2022-12-18T06:45:49;-4.50;99.90
19829;DHT22;10075;50.924;4.396;2022-12-18T06:48:19;-4.50;99.90
19829;DHT22;10075;50.924;4.396;2022-12-18T06:50:46;-4.50;99.90
19829;DHT22;10075;50.924;4.396;2022-12-18T06:53:14;-4.50;99.90
19829;DHT22;10075;50.924;4.396;2022-12-18T06:55:41;-4.30;99.90
19829;DHT22;10075;50.924;4.396;2022-12-18T06:58:08;-4.40;99.90
19829;DHT22;10075;50.924;4.396;2022-12-18T07:00:35;-4.40;99.90
19829;DHT22;10075;50.924;4.396;2022-12-18T07:03:03;-4.40;99.90
19829;DHT22;10075;50.924;4.396;2022-12-18T07:05:32;-4.30;99.90
19829;DHT22;10075;50.924;4.396;2022-12-18T07:07:59;-4.30;99.90
19829;DHT22;10075;50.924;4.396;2022-12-18T07:10:26;-4.30;99.90
19829;DHT22;10075;50.924;4.396;2022-12-18T07:12:54;-4.30;99.90
19829;DHT22;10075;50.924;4.396;2022-12-18T07:15:21;-4.30;99.90
19829;DHT22;10075;50.924;4.396;2022-12-18T07:17:48;-4.30;99.90
19829;DHT22;10075;50.924;4.396;2022-12-18T07:20:16;-4.30;99.90
19829;DHT22;10075;50.924;4.396;2022-12-18T07:22:44;-4.30;99.90
19829;DHT22;10075;50.924;4.396;2022-12-18T07:25:11;-4.30;99.90
19829;DHT22;10075;50.924;4.396;2022-12-18T07:27:39;-4.30;99.90
19829;DHT22;10075;50.924;4.396;2022-12-18T07:30:07;-4.20;99.90
19829;DHT22;10075;50.924;4.396;2022-12-18T07:32:35;-4.20;99.90
19829;DHT22;10075;50.924;4.396;2022-12-18T07:35:02;-4.10;99.90
19829;DHT22;10075;50.924;4.396;2022-12-18T07:37:30;-4.20;99.90
19829;DHT22;10075;50.924;4.396;2022-12-18T07:39:58;-4.30;99.90
19829;DHT22;10075;50.924;4.396;2022-12-18T07:42:25;-4.20;99.90
19829;DHT22;10075;50.924;4.396;2022-12-18T07:44:58;-4.20;99.90
19829;DHT22;10075;50.924;4.396;2022-12-18T07:47:25;-4.30;99.90
19829;DHT22;10075;50.924;4.396;2022-12-18T07:49:52;-4.30;99.90
19829;DHT22;10075;50.924;4.396;2022-12-18T07:52:20;-4.30;99.90
19829;DHT22;10075;50.924;4.396;2022-12-18T07:54:47;-4.30;99.90
19829;DHT22;10075;50.924;4.396;2022-12-18T07:57:17;-4.30;99.90
19829;DHT22;10075;50.924;4.396;2022-12-18T07:59:44;-4.30;99.90
19829;DHT22;10075;50.924;4.396;2022-12-18T08:02:11;-4.20;99.90
19829;DHT22;10075;50.924;4.396;2022-12-18T08:04:38;-4.10;99.90
19829;DHT22;10075;50.924;4.396;2022-12-18T08:07:08;-4.10;99.90
19829;DHT22;10075;50.924;4.396;2022-12-18T08:09:35;-4.10;99.90
19829;DHT22;10075;50.924;4.396;2022-12-18T08:12:02;-4.10;99.90
19829;DHT22;10075;50.924;4.396;2022-12-18T08:14:31;-4.10;99.90
19829;DHT22;10075;50.924;4.396;2022-12-18T08:16:58;-4.10;99.90
19829;DHT22;10075;50.924;4.396;2022-12-18T08:19:25;-4.00;99.90
19829;DHT22;10075;50.924;4.396;2022-12-18T08:21:52;-3.90;99.90
19829;DHT22;10075;50.924;4.396;2022-12-18T08:24:19;-3.80;99.90
19829;DHT22;10075;50.924;4.396;2022-12-18T08:26:47;-3.70;99.90
19829;DHT22;10075;50.924;4.396;2022-12-18T08:29:14;-3.60;99.90
19829;DHT22;10075;50.924;4.396;2022-12-18T08:31:42;-3.40;99.90
19829;DHT22;10075;50.924;4.396;2022-12-18T08:34:09;-3.30;99.90
19829;DHT22;10075;50.924;4.396;2022-12-18T08:36:36;-3.10;99.90
19829;DHT22;10075;50.924;4.396;2022-12-18T08:39:03;-3.10;99.90
19829;DHT22;10075;50.924;4.396;2022-12-18T08:41:30;-3.00;99.90
19829;DHT22;10075;50.924;4.396;2022-12-18T08:43:58;-2.90;99.90
19829;DHT22;10075;50.924;4.396;2022-12-18T08:46:44;-2.90;99.90
19829;DHT22;10075;50.924;4.396;2022-12-18T08:49:12;-2.80;99.90
19829;DHT22;10075;50.924;4.396;2022-12-18T08:51:39;-2.70;99.90
19829;DHT22;10075;50.924;4.396;2022-12-18T08:54:07;-2.50;99.90
19829;DHT22;10075;50.924;4.396;2022-12-18T08:56:34;-2.40;99.90
19829;DHT22;10075;50.924;4.396;2022-12-18T08:59:01;-2.20;99.90
19829;DHT22;10075;50.924;4.396;2022-12-18T09:01:30;-2.10;99.90
19829;DHT22;10075;50.924;4.396;2022-12-18T09:03:58;-2.10;99.90
19829;DHT22;10075;50.924;4.396;2022-12-18T09:06:25;-2.00;99.90
19829;DHT22;10075;50.924;4.396;2022-12-18T09:08:53;-2.00;99.90
19829;DHT22;10075;50.924;4.396;2022-12-18T09:11:21;-1.90;99.90
19829;DHT22;10075;50.924;4.396;2022-12-18T09:13:49;-1.80;99.90
19829;DHT22;10075;50.924;4.396;2022-12-18T09:16:17;-1.70;99.90
19829;DHT22;10075;50.924;4.396;2022-12-18T09:18:45;-1.60;99.90
19829;DHT22;10075;50.924;4.396;2022-12-18T09:21:15;-1.60;99.90
19829;DHT22;10075;50.924;4.396;2022-12-18T09:23:43;-1.40;99.90
19829;DHT22;10075;50.924;4.396;2022-12-18T09:26:11;-1.30;99.90
19829;DHT22;10075;50.924;4.396;2022-12-18T09:28:38;-1.30;99.90
19829;DHT22;10075;50.924;4.396;2022-12-18T09:31:07;-1.20;99.90
19829;DHT22;10075;50.924;4.396;2022-12-18T09:33:34;-1.10;99.90
19829;DHT22;10075;50.924;4.396;2022-12-18T09:36:03;-1.00;99.90
19829;DHT22;10075;50.924;4.396;2022-12-18T09:38:33;-0.90;99.90
19829;DHT22;10075;50.924;4.396;2022-12-18T09:41:04;-0.80;99.90
19829;DHT22;10075;50.924;4.396;2022-12-18T09:43:39;-0.60;99.90
19829;DHT22;10075;50.924;4.396;2022-12-18T09:46:11;-0.50;99.90
19829;DHT22;10075;50.924;4.396;2022-12-18T09:48:46;-0.50;99.90
19829;DHT22;10075;50.924;4.396;2022-12-18T09:51:16;-0.40;99.90
19829;DHT22;10075;50.924;4.396;2022-12-18T09:53:52;-0.40;99.90
19829;DHT22;10075;50.924;4.396;2022-12-18T09:56:21;-0.30;99.90
19829;DHT22;10075;50.924;4.396;2022-12-18T09:58:55;-0.20;99.90
19829;DHT22;10075;50.924;4.396;2022-12-18T10:01:24;-0.10;99.90
19829;DHT22;10075;50.924;4.396;2022-12-18T10:03:52;0.00;99.90
19829;DHT22;10075;50.924;4.396;2022-12-18T10:06:22;0.10;99.90
19829;DHT22;10075;50.924;4.396;2022-12-18T10:08:56;0.10;99.90
19829;DHT22;10075;50.924;4.396;2022-12-18T10:11:34;0.10;99.90
19829;DHT22;10075;50.924;4.396;2022-12-18T10:14:12;0.30;99.90
19829;DHT22;10075;50.924;4.396;2022-12-18T10:16:49;0.30;99.90
19829;DHT22;10075;50.924;4.396;2022-12-18T10:19:29;0.30;99.90
19829;DHT22;10075;50.924;4.396;2022-12-18T10:22:03;0.40;99.90
19829;DHT22;10075;50.924;4.396;2022-12-18T10:24:42;0.40;99.90
19829;DHT22;10075;50.924;4.396;2022-12-18T10:27:15;0.40;99.90
19829;DHT22;10075;50.924;4.396;2022-12-18T10:29:44;0.50;99.90
19829;DHT22;10075;50.924;4.396;2022-12-18T10:32:14;0.50;99.90
19829;DHT22;10075;50.924;4.396;2022-12-18T10:34:45;0.60;99.90
19829;DHT22;10075;50.924;4.396;2022-12-18T10:37:16;0.70;99.90
19829;DHT22;10075;50.924;4.396;2022-12-18T10:39:46;0.70;99.90
19829;DHT22;10075;50.924;4.396;2022-12-18T10:42:17;0.80;99.90
19829;DHT22;10075;50.924;4.396;2022-12-18T10:44:45;0.80;99.90
19829;DHT22;10075;50.924;4.396;2022-12-18T10:47:17;0.90;99.90
19829;DHT22;10075;50.924;4.396;2022-12-18T10:49:50;0.90;99.90
19829;DHT22;10075;50.924;4.396;2022-12-18T10:52:22;1.00;99.90
19829;DHT22;10075;50.924;4.396;2022-12-18T10:54:52;1.10;99.90
19829;DHT22;10075;50.924;4.396;2022-12-18T10:57:34;1.20;99.90
19829;DHT22;10075;50.924;4.396;2022-12-18T11:00:22;1.30;99.90
19829;DHT22;10075;50.924;4.396;2022-12-18T11:02:50;1.40;99.90
19829;DHT22;10075;50.924;4.396;2022-12-18T11:05:27;1.50;99.90
19829;DHT22;10075;50.924;4.396;2022-12-18T11:07:54;1.60;99.90
19829;DHT22;10075;50.924;4.396;2022-12-18T11:10:27;1.60;99.90
19829;DHT22;10075;50.924;4.396;2022-12-18T11:12:55;1.70;99.90
19829;DHT22;10075;50.924;4.396;2022-12-18T11:15:27;1.70;99.90
19829;DHT22;10075;50.924;4.396;2022-12-18T11:17:56;1.80;99.90
19829;DHT22;10075;50.924;4.396;2022-12-18T11:20:31;1.80;99.90
19829;DHT22;10075;50.924;4.396;2022-12-18T11:23:00;1.80;99.90
19829;DHT22;10075;50.924;4.396;2022-12-18T11:25:31;1.90;99.90
19829;DHT22;10075;50.924;4.396;2022-12-18T11:28:00;1.90;99.90
19829;DHT22;10075;50.924;4.396;2022-12-18T11:30:29;2.00;99.90
19829;DHT22;10075;50.924;4.396;2022-12-18T11:33:01;2.00;99.90
19829;DHT22;10075;50.924;4.396;2022-12-18T11:35:39;2.00;99.90
19829;DHT22;10075;50.924;4.396;2022-12-18T11:38:20;2.00;99.90
19829;DHT22;10075;50.924;4.396;2022-12-18T11:40:55;2.00;99.90
19829;DHT22;10075;50.924;4.396;2022-12-18T11:43:27;2.10;99.90
19829;DHT22;10075;50.924;4.396;2022-12-18T11:45:59;2.00;99.90
19829;DHT22;10075;50.924;4.396;2022-12-18T11:48:30;2.00;99.90
19829;DHT22;10075;50.924;4.396;2022-12-18T11:51:00;2.10;99.90
19829;DHT22;10075;50.924;4.396;2022-12-18T11:53:30;2.10;99.90
19829;DHT22;10075;50.924;4.396;2022-12-18T11:56:11;2.10;99.90
19829;DHT22;10075;50.924;4.396;2022-12-18T11:58:46;2.20;99.90
19829;DHT22;10075;50.924;4.396;2022-12-18T12:01:23;2.20;99.90
19829;DHT22;10075;50.924;4.396;2022-12-18T12:04:11;2.30;99.90
19829;DHT22;10075;50.924;4.396;2022-12-18T12:06:46;2.30;99.90
19829;DHT22;10075;50.924;4.396;2022-12-18T12:09:22;2.30;99.90
19829;DHT22;10075;50.924;4.396;2022-12-18T12:12:17;2.30;99.90
19829;DHT22;10075;50.924;4.396;2022-12-18T12:14:57;2.40;99.90
19829;DHT22;10075;50.924;4.396;2022-12-18T12:17:37;2.50;99.90
19829;DHT22;10075;50.924;4.396;2022-12-18T12:20:10;2.50;99.90
19829;DHT22;10075;50.924;4.396;2022-12-18T12:22:48;2.50;99.90
19829;DHT22;10075;50.924;4.396;2022-12-18T12:25:26;2.60;99.90
19829;DHT22;10075;50.924;4.396;2022-12-18T12:28:06;2.60;99.90
19829;DHT22;10075;50.924;4.396;2022-12-18T12:30:44;2.70;99.90
19829;DHT22;10075;50.924;4.396;2022-12-18T12:33:25;2.70;99.90
19829;DHT22;10075;50.924;4.396;2022-12-18T12:36:03;2.90;99.90
19829;DHT22;10075;50.924;4.396;2022-12-18T12:38:36;2.90;99.90
19829;DHT22;10075;50.924;4.396;2022-12-18T12:41:09;3.10;99.90
19829;DHT22;10075;50.924;4.396;2022-12-18T12:44:01;3.10;99.90
19829;DHT22;10075;50.924;4.396;2022-12-18T12:46:31;3.10;99.90
19829;DHT22;10075;50.924;4.396;2022-12-18T12:49:01;3.20;99.90
19829;DHT22;10075;50.924;4.396;2022-12-18T12:51:32;3.20;99.90
19829;DHT22;10075;50.924;4.396;2022-12-18T12:54:02;3.30;99.90
19829;DHT22;10075;50.924;4.396;2022-12-18T12:56:36;3.50;99.90
19829;DHT22;10075;50.924;4.396;2022-12-18T12:59:12;3.60;99.90
19829;DHT22;10075;50.924;4.396;2022-12-18T13:01:46;3.50;99.90
19829;DHT22;10075;50.924;4.396;2022-12-18T13:04:21;3.60;99.90
19829;DHT22;10075;50.924;4.396;2022-12-18T13:06:56;3.60;99.90
19829;DHT22;10075;50.924;4.396;2022-12-18T13:09:30;3.60;99.90
19829;DHT22;10075;50.924;4.396;2022-12-18T13:12:02;3.70;99.90
19829;DHT22;10075;50.924;4.396;2022-12-18T13:14:48;3.70;99.90
19829;DHT22;10075;50.924;4.396;2022-12-18T13:17:24;3.60;99.90
19829;DHT22;10075;50.924;4.396;2022-12-18T13:20:07;3.60;99.90
19829;DHT22;10075;50.924;4.396;2022-12-18T13:22:35;3.60;99.90
19829;DHT22;10075;50.924;4.396;2022-12-18T13:27:59;3.70;99.90
19829;DHT22;10075;50.924;4.396;2022-12-18T13:30:52;3.70;99.90
19829;DHT22;10075;50.924;4.396;2022-12-18T13:33:47;3.80;99.90
19829;DHT22;10075;50.924;4.396;2022-12-18T13:36:28;3.80;99.90
19829;DHT22;10075;50.924;4.396;2022-12-18T13:39:22;3.70;99.90
19829;DHT22;10075;50.924;4.396;2022-12-18T13:41:51;3.70;99.90
19829;DHT22;10075;50.924;4.396;2022-12-18T13:44:32;3.70;99.90
19829;DHT22;10075;50.924;4.396;2022-12-18T13:47:03;3.70;99.90
19829;DHT22;10075;50.924;4.396;2022-12-18T13:49:37;3.70;99.90
19829;DHT22;10075;50.924;4.396;2022-12-18T13:52:17;3.70;99.90
19829;DHT22;10075;50.924;4.396;2022-12-18T13:54:47;3.70;99.90
19829;DHT22;10075;50.924;4.396;2022-12-18T13:57:26;3.60;99.90
19829;DHT22;10075;50.924;4.396;2022-12-18T13:59:54;3.60;99.90
19829;DHT22;10075;50.924;4.396;2022-12-18T14:02:24;3.60;99.90
19829;DHT22;10075;50.924;4.396;2022-12-18T14:04:53;3.60;99.90
19829;DHT22;10075;50.924;4.396;2022-12-18T14:07:22;3.50;99.90
19829;DHT22;10075;50.924;4.396;2022-12-18T14:09:51;3.50;99.90
19829;DHT22;10075;50.924;4.396;2022-12-18T14:12:21;3.50;99.90
19829;DHT22;10075;50.924;4.396;2022-12-18T14:15:09;3.50;99.90
19829;DHT22;10075;50.924;4.396;2022-12-18T14:17:44;3.60;99.90
19829;DHT22;10075;50.924;4.396;2022-12-18T14:20:13;3.70;99.90
19829;DHT22;10075;50.924;4.396;2022-12-18T14:22:43;3.60;99.90
19829;DHT22;10075;50.924;4.396;2022-12-18T14:25:16;3.50;99.90
19829;DHT22;10075;50.924;4.396;2022-12-18T14:27:46;3.50;99.90
19829;DHT22;10075;50.924;4.396;2022-12-18T14:30:31;3.40;99.90
19829;DHT22;10075;50.924;4.396;2022-12-18T14:33:05;3.40;99.90
19829;DHT22;10075;50.924;4.396;2022-12-18T14:35:34;3.30;99.90
19829;DHT22;10075;50.924;4.396;2022-12-18T14:38:26;3.30;99.90
19829;DHT22;10075;50.924;4.396;2022-12-18T14:40:55;3.40;99.90
19829;DHT22;10075;50.924;4.396;2022-12-18T14:43:23;3.40;99.90
19829;DHT22;10075;50.924;4.396;2022-12-18T14:45:50;3.50;99.90
19829;DHT22;10075;50.924;4.396;2022-12-18T14:48:21;3.40;99.90
19829;DHT22;10075;50.924;4.396;2022-12-18T14:50:56;3.40;99.90
19829;DHT22;10075;50.924;4.396;2022-12-18T14:53:33;3.40;99.90
19829;DHT22;10075;50.924;4.396;2022-12-18T14:56:02;3.30;99.90
19829;DHT22;10075;50.924;4.396;2022-12-18T14:58:30;3.20;99.90
19829;DHT22;10075;50.924;4.396;2022-12-18T15:00:57;3.30;99.90
19829;DHT22;10075;50.924;4.396;2022-12-18T15:03:26;3.20;99.90
19829;DHT22;10075;50.924;4.396;2022-12-18T15:05:53;3.30;99.90
19829;DHT22;10075;50.924;4.396;2022-12-18T15:08:34;3.30;99.90
19829;DHT22;10075;50.924;4.396;2022-12-18T15:11:02;3.20;99.90
19829;DHT22;10075;50.924;4.396;2022-12-18T15:13:29;3.20;99.90
19829;DHT22;10075;50.924;4.396;2022-12-18T15:15:57;3.20;99.90
19829;DHT22;10075;50.924;4.396;2022-12-18T15:18:32;3.20;99.90
19829;DHT22;10075;50.924;4.396;2022-12-18T15:21:06;3.20;99.90
19829;DHT22;10075;50.924;4.396;2022-12-18T15:23:36;3.30;99.90
19829;DHT22;10075;50.924;4.396;2022-12-18T15:26:05;3.30;99.90
19829;DHT22;10075;50.924;4.396;2022-12-18T15:28:35;3.20;99.90
19829;DHT22;10075;50.924;4.396;2022-12-18T15:31:06;3.20;99.90
19829;DHT22;10075;50.924;4.396;2022-12-18T15:34:08;3.30;99.90
19829;DHT22;10075;50.924;4.396;2022-12-18T15:36:36;3.30;99.90
19829;DHT22;10075;50.924;4.396;2022-12-18T15:39:03;3.30;99.90
19829;DHT22;10075;50.924;4.396;2022-12-18T15:41:32;3.30;99.90
19829;DHT22;10075;50.924;4.396;2022-12-18T15:44:00;3.30;99.90
19829;DHT22;10075;50.924;4.396;2022-12-18T15:46:26;3.30;99.90
19829;DHT22;10075;50.924;4.396;2022-12-18T15:48:56;3.40;99.90
19829;DHT22;10075;50.924;4.396;2022-12-18T15:51:26;3.40;99.90
19829;DHT22;10075;50.924;4.396;2022-12-18T15:53:56;3.20;99.90
19829;DHT22;10075;50.924;4.396;2022-12-18T15:56:23;3.20;99.90
19829;DHT22;10075;50.924;4.396;2022-12-18T15:59:20;3.30;99.90
19829;DHT22;10075;50.924;4.396;2022-12-18T16:01:50;3.30;99.90
19829;DHT22;10075;50.924;4.396;2022-12-18T16:04:21;3.40;99.90